Terminal Aerodrome Forecast
Issued by NWS Melbourne, FL

Home | Current Version | Previous Version | Text Only | Print | Product List | Glossary On
Versions: 1 2 3 4 5 6 7 8 9 10 11 12 13 14 15 16 17 18 19
000
FTUS42 KMLB 022015 AAA
TAFVRB
TAF AMD
KVRB 022015Z 0220/0318 05009KT P6SM FEW025
     FM030000 06005KT P6SM SKC
     FM030600 05004KT 4SM BR BKN004
      TEMPO 0310/0313 1SM BR BKN002
     FM031400 08008KT P6SM SCT005
     FM031700 10010KT P6SM SCT030=

USA.gov is the U.S. government's official web portal to all federal, state and local government web resources and services.